Millrift, Pennsylvania
Current Conditions -  °F | °C
As of 11:56 PM on Monday 22 Dec 2014 (Local Time) from KFWN Reporting Station
Haze Haze  
Wind Chill: 32°   Ceiling: 400
Heat Index: 37°   Visibility: 2mi
Dew Point: 36°   Wind: 7mph
Humidity: 96%   Direction: 40°NE
Pressure: 30.15"   Gusts: NA
Location:  41.41°N, 74.74°W
Report Text: KFWN 230456Z AUTO 04006KT 2SM BR OVC004 03/02 A3015 RMK AO2 T00280022
Loading
Personal Weather Stations






























Interactive Weather Map New forecast layout! Learn more

10-Day Weather Forecast

Advertisements
Track Severe Weather on mobile